createdAt,value
2018-08-10T00:01:52.709Z,22.12
2018-08-10T00:04:23.100Z,22.41
2018-08-10T00:06:52.958Z,22.58
2018-08-10T00:09:22.868Z,22.28
2018-08-10T00:11:53.525Z,22.08
2018-08-10T00:14:23.447Z,22.44
2018-08-10T00:16:53.359Z,22.49
2018-08-10T00:19:23.161Z,22.29
2018-08-10T00:21:53.273Z,21.97
2018-08-10T00:24:23.305Z,20.94
2018-08-10T00:26:53.175Z,20.86
2018-08-10T00:29:23.105Z,21.04
2018-08-10T00:31:52.943Z,21.26
2018-08-10T00:34:23.469Z,21.13
2018-08-10T00:36:53.844Z,20.80
2018-08-10T00:39:24.140Z,20.50
2018-08-10T00:41:55.030Z,20.68
2018-08-10T00:44:24.938Z,20.96
2018-08-10T00:46:54.686Z,21.01
2018-08-10T00:49:24.545Z,20.94
2018-08-10T00:51:55.304Z,21.34
2018-08-10T00:54:25.111Z,21.77
2018-08-10T00:56:55.509Z,21.68
2018-08-10T00:59:25.714Z,21.04
2018-08-10T01:01:56.742Z,20.39
2018-08-10T01:04:27.368Z,20.43
2018-08-10T01:06:57.553Z,20.04
2018-08-10T01:09:28.218Z,20.03
2018-08-10T01:11:58.861Z,20.56
2018-08-10T01:14:29.180Z,20.86
2018-08-10T01:16:59.397Z,21.11
2018-08-10T01:19:29.574Z,21.19
2018-08-10T01:22:00.786Z,21.24
2018-08-10T01:24:31.444Z,21.08
2018-08-10T01:27:01.658Z,21.03
2018-08-10T01:29:31.921Z,21.34
2018-08-10T01:32:02.601Z,21.01
2018-08-10T01:34:33.132Z,20.16
2018-08-10T01:37:03.366Z,19.76
2018-08-10T01:39:33.675Z,19.69
2018-08-10T01:42:04.394Z,19.63
2018-08-10T01:44:35.130Z,20.02
2018-08-10T01:47:05.681Z,20.31
2018-08-10T01:49:35.498Z,20.57
2018-08-10T01:52:06.213Z,20.32
2018-08-10T01:54:36.598Z,19.71
2018-08-10T01:57:07.055Z,19.70
2018-08-10T01:59:37.339Z,20.20
2018-08-10T02:02:08.545Z,20.43
2018-08-10T02:04:39.163Z,20.55
2018-08-10T02:07:09.339Z,20.66
2018-08-10T02:09:40.070Z,20.96
2018-08-10T02:12:13.359Z,21.13
2018-08-10T02:14:43.628Z,21.11
2018-08-10T02:17:14.256Z,21.21
2018-08-10T02:19:44.341Z,21.23
2018-08-10T02:22:15.500Z,21.20
2018-08-10T02:24:45.634Z,21.26
2018-08-10T02:27:15.416Z,21.36
2018-08-10T02:29:45.205Z,20.94
2018-08-10T02:32:15.059Z,19.90
2018-08-10T02:34:44.842Z,19.41
2018-08-10T02:37:14.904Z,19.07
2018-08-10T02:39:45.090Z,19.55
2018-08-10T02:42:15.209Z,19.87
2018-08-10T02:44:45.995Z,20.34
2018-08-10T02:47:20.349Z,20.38
2018-08-10T02:49:50.707Z,20.43
2018-08-10T02:52:22.058Z,20.65
2018-08-10T02:54:52.363Z,20.51
2018-08-10T02:57:22.771Z,20.15
2018-08-10T02:59:53.235Z,20.53
2018-08-10T03:02:24.588Z,20.74
2018-08-10T03:04:54.954Z,20.84
2018-08-10T03:07:25.085Z,20.92
2018-08-10T03:09:55.582Z,20.99
2018-08-10T03:12:26.698Z,21.03
2018-08-10T03:14:57.128Z,21.09
2018-08-10T03:17:27.402Z,21.15
2018-08-10T03:19:57.586Z,21.14
2018-08-10T03:22:28.918Z,21.07
2018-08-10T03:24:59.544Z,21.01
2018-08-10T03:27:30.153Z,21.07
2018-08-10T03:30:00.813Z,21.10
2018-08-10T03:32:32.321Z,20.62
2018-08-10T03:35:02.707Z,20.79
2018-08-10T03:37:32.910Z,20.48
2018-08-10T03:40:03.429Z,20.55
2018-08-10T03:42:34.486Z,19.58
2018-08-10T03:45:04.997Z,19.78
2018-08-10T03:47:35.415Z,19.48
2018-08-10T03:50:05.993Z,19.78
2018-08-10T03:52:36.743Z,19.65
2018-08-10T03:55:07.794Z,20.29
2018-08-10T03:57:38.643Z,20.87
2018-08-10T04:00:10.447Z,21.20
2018-08-10T04:02:41.336Z,21.47
2018-08-10T04:05:12.939Z,21.65
2018-08-10T04:07:43.358Z,21.48
2018-08-10T04:10:14.069Z,21.72
2018-08-10T04:12:44.159Z,21.98
2018-08-10T04:15:15.166Z,21.69
2018-08-10T04:17:45.557Z,20.88
2018-08-10T04:20:15.930Z,20.90
2018-08-10T04:22:47.015Z,20.34
2018-08-10T04:25:17.741Z,20.28
2018-08-10T04:27:48.485Z,19.97
2018-08-10T04:30:18.664Z,20.61
2018-08-10T04:38:34.598Z,21.23
2018-08-10T04:41:05.621Z,21.44
2018-08-10T04:43:35.996Z,21.25
2018-08-10T04:46:06.993Z,21.69
2018-08-10T04:48:37.389Z,22.07
2018-08-10T04:51:07.681Z,22.32
2018-08-10T04:53:38.224Z,22.13
2018-08-10T04:56:09.748Z,21.54
2018-08-10T04:58:40.367Z,20.81
2018-08-10T05:01:11.001Z,21.03
2018-08-10T05:03:41.894Z,21.11
2018-08-10T05:06:12.557Z,21.28
2018-08-10T05:08:43.041Z,21.23
2018-08-10T05:11:13.431Z,21.17
2018-08-10T05:13:44.199Z,21.85
2018-08-10T05:16:15.516Z,22.34
2018-08-10T05:18:46.268Z,22.19
2018-08-10T05:21:16.710Z,22.01
2018-08-10T05:23:47.381Z,22.26
2018-08-10T05:26:18.571Z,22.48
2018-08-10T05:28:49.368Z,21.85
2018-08-10T05:31:19.605Z,22.20
2018-08-10T05:33:49.942Z,22.46
2018-08-10T05:36:21.204Z,22.09
2018-08-10T05:38:51.707Z,21.11
2018-08-10T05:41:22.368Z,21.69
2018-08-10T05:43:52.817Z,22.63
2018-08-10T05:46:24.300Z,23.12
2018-08-10T05:48:55.166Z,21.81
2018-08-10T05:51:25.632Z,21.47
2018-08-10T05:53:56.345Z,21.79
2018-08-10T05:56:27.720Z,22.12
2018-08-10T05:58:58.387Z,22.89
2018-08-10T06:01:29.200Z,22.47
2018-08-10T06:04:00.065Z,23.06
2018-08-10T06:06:30.533Z,23.06
2018-08-10T06:09:01.278Z,23.14
2018-08-10T06:11:31.962Z,23.69
2018-08-10T06:14:01.648Z,23.74
2018-08-10T06:16:33.637Z,24.03
2018-08-10T06:19:03.487Z,24.52
2018-08-10T06:21:33.654Z,24.52
2018-08-10T06:24:03.658Z,25.33
2018-08-10T06:26:34.489Z,25.74
2018-08-10T06:29:04.495Z,25.62
2018-08-10T06:31:35.056Z,25.78
2018-08-10T06:34:04.716Z,25.74
2018-08-10T06:36:35.899Z,25.88
2018-08-10T06:39:07.990Z,25.90
2018-08-10T06:41:38.011Z,25.51
2018-08-10T06:44:08.512Z,25.96
2018-08-10T06:46:39.175Z,26.36
2018-08-10T06:49:08.908Z,26.42
2018-08-10T06:51:38.572Z,26.70
2018-08-10T06:54:09.320Z,27.12
2018-08-10T06:56:40.155Z,27.11
2018-08-10T06:59:09.949Z,27.61
2018-08-10T07:01:39.786Z,27.26
2018-08-10T07:04:09.555Z,27.90
2018-08-10T07:06:39.908Z,28.42
2018-08-10T07:09:11.924Z,29.08
2018-08-10T07:11:41.929Z,28.84
2018-08-10T07:14:11.833Z,29.74
2018-08-10T07:16:42.767Z,30.44
2018-08-10T07:19:12.588Z,30.46
2018-08-10T07:21:43.116Z,30.42
2018-08-10T07:24:13.280Z,30.05
2018-08-10T07:26:44.487Z,30.57
2018-08-10T07:29:14.972Z,30.89
2018-08-10T07:31:45.684Z,30.89
2018-08-10T07:34:16.008Z,31.33
2018-08-10T07:36:46.767Z,31.50
2018-08-10T07:39:17.175Z,31.42
2018-08-10T07:41:47.524Z,31.25
2018-08-10T07:44:17.907Z,32.05
2018-08-10T07:46:49.736Z,31.29
2018-08-10T07:49:20.236Z,31.14
2018-08-10T07:51:50.802Z,32.03
2018-08-10T07:54:20.969Z,32.19
2018-08-10T07:56:51.781Z,32.23
2018-08-10T07:59:22.101Z,32.06
2018-08-10T08:01:52.309Z,32.24
2018-08-10T08:04:23.505Z,32.91
2018-08-10T08:06:54.924Z,31.55
2018-08-10T08:09:25.452Z,32.06
2018-08-10T08:11:55.932Z,32.61
2018-08-10T08:14:26.496Z,32.50
2018-08-10T08:16:57.910Z,32.35
2018-08-10T08:19:28.398Z,33.19
2018-08-10T08:22:10.904Z,32.83
2018-08-10T08:24:42.203Z,32.95
2018-08-10T08:27:14.510Z,34.09
2018-08-10T08:29:44.611Z,32.40
2018-08-10T08:32:15.461Z,33.33
2018-08-10T08:34:45.936Z,34.13
2018-08-10T08:37:17.496Z,34.17
2018-08-10T08:40:31.238Z,32.66
2018-08-10T08:43:01.615Z,33.96
2018-08-10T08:45:51.449Z,34.21
2018-08-10T08:48:22.142Z,34.30
2018-08-10T08:50:54.367Z,34.04
2018-08-10T08:53:25.184Z,33.78
2018-08-10T08:56:00.314Z,33.25
2018-08-10T08:58:31.361Z,33.56
2018-08-10T09:01:02.319Z,33.63
2018-08-10T09:03:43.540Z,33.71
2018-08-10T09:06:14.560Z,34.48
2018-08-10T09:08:55.730Z,34.23
2018-08-10T09:11:26.288Z,33.88
2018-08-10T09:15:01.580Z,32.96
2018-08-10T09:17:31.931Z,34.32
2018-08-10T09:20:02.016Z,33.34
2018-08-10T09:22:32.273Z,33.88
2018-08-10T09:25:03.713Z,34.20
2018-08-10T09:27:34.049Z,34.59
2018-08-10T09:30:05.451Z,34.82
2018-08-10T09:32:35.976Z,33.94
2018-08-10T09:35:07.966Z,34.72
2018-08-10T09:37:38.538Z,34.82
2018-08-10T09:40:14.537Z,33.21
2018-08-10T09:42:45.187Z,32.72
2018-08-10T09:45:17.814Z,32.71
2018-08-10T09:47:49.216Z,34.10
2018-08-10T09:50:20.619Z,35.13
2018-08-10T09:52:58.926Z,35.51
2018-08-10T09:55:31.361Z,35.16
2018-08-10T09:58:09.420Z,33.95
2018-08-10T10:00:44.944Z,33.79
2018-08-10T10:03:18.792Z,33.80
2018-08-10T10:05:51.653Z,34.48
2018-08-10T10:08:22.539Z,34.23
2018-08-10T10:10:53.364Z,34.91
2018-08-10T10:13:24.050Z,35.21
2018-08-10T10:15:55.014Z,35.81
2018-08-10T10:18:26.340Z,35.84
2018-08-10T10:20:56.852Z,35.22
2018-08-10T10:23:26.726Z,34.53
2018-08-10T10:25:56.834Z,34.67
2018-08-10T10:28:26.461Z,34.30
2018-08-10T10:30:56.937Z,33.85
2018-08-10T10:33:26.641Z,34.96
2018-08-10T10:35:56.500Z,35.40
2018-08-10T10:38:27.444Z,33.62
2018-08-10T10:40:58.188Z,35.02
2018-08-10T10:43:28.516Z,35.18
2018-08-10T10:45:59.955Z,34.44
2018-08-10T10:48:30.156Z,34.23
2018-08-10T10:51:00.744Z,33.64
2018-08-10T10:53:31.464Z,33.79
2018-08-10T10:56:02.895Z,33.88
2018-08-10T10:58:33.781Z,33.95
2018-08-10T11:01:04.190Z,33.32
2018-08-10T11:03:34.988Z,33.94
2018-08-10T11:06:05.628Z,33.81
2018-08-10T11:08:36.161Z,35.63
2018-08-10T11:11:06.378Z,35.44
2018-08-10T11:13:36.820Z,34.00
2018-08-10T11:16:07.398Z,33.82
2018-08-10T11:18:38.383Z,33.94
2018-08-10T11:21:08.765Z,34.54
2018-08-10T11:23:39.561Z,35.22
2018-08-10T11:26:10.670Z,35.73
2018-08-10T11:28:40.960Z,36.72
2018-08-10T11:31:11.740Z,37.30
2018-08-10T11:33:42.363Z,37.87
2018-08-10T11:36:13.385Z,38.70
2018-08-10T11:38:44.464Z,38.63
2018-08-10T11:41:14.828Z,37.87
2018-08-10T11:43:45.460Z,37.78
2018-08-10T11:46:16.516Z,37.04
2018-08-10T11:48:47.003Z,36.81
2018-08-10T11:51:17.714Z,38.08
2018-08-10T11:53:48.052Z,37.91
2018-08-10T11:56:18.518Z,37.79
2018-08-10T11:58:48.351Z,36.47
2018-08-10T12:01:18.245Z,37.49
2018-08-10T12:03:48.540Z,38.31
2018-08-10T12:06:18.872Z,38.71
2018-08-10T12:08:48.718Z,38.08
2018-08-10T12:11:18.316Z,37.44
2018-08-10T12:13:48.161Z,37.55
2018-08-10T12:16:17.871Z,37.34
2018-08-10T12:18:47.583Z,37.88
2018-08-10T12:21:17.242Z,37.17
2018-08-10T12:23:47.099Z,37.38
2018-08-10T12:26:16.873Z,37.76
2018-08-10T12:28:46.617Z,38.41
2018-08-10T12:31:16.425Z,38.33
2018-08-10T12:33:46.152Z,38.27
2018-08-10T12:36:15.769Z,39.15
2018-08-10T12:38:45.499Z,39.59
2018-08-10T12:41:15.555Z,38.86
2018-08-10T12:43:45.240Z,39.97
2018-08-10T12:46:15.077Z,39.93
2018-08-10T12:48:44.837Z,39.75
2018-08-10T12:51:14.612Z,39.03
2018-08-10T12:53:44.191Z,38.02
2018-08-10T12:56:14.134Z,37.88
2018-08-10T12:58:43.931Z,35.82
2018-08-10T13:01:13.872Z,36.06
2018-08-10T13:03:43.599Z,37.22
2018-08-10T13:06:13.308Z,37.15
2018-08-10T13:08:43.107Z,38.07
2018-08-10T13:11:12.788Z,36.64
2018-08-10T13:13:42.510Z,36.92
2018-08-10T13:16:12.307Z,35.76
2018-08-10T13:18:41.853Z,35.43
2018-08-10T13:21:11.707Z,35.20
2018-08-10T13:23:41.438Z,33.70
2018-08-10T13:26:11.093Z,34.49
2018-08-10T13:28:40.904Z,34.30
2018-08-10T13:31:10.712Z,33.57
2018-08-10T13:33:40.514Z,33.49
2018-08-10T13:36:10.312Z,33.67
2018-08-10T13:38:40.058Z,33.72
2018-08-10T13:41:09.895Z,32.75
2018-08-10T13:43:40.126Z,32.95
2018-08-10T13:46:10.189Z,33.21
2018-08-10T13:48:39.752Z,33.64
2018-08-10T13:51:09.708Z,32.74
2018-08-10T13:53:39.439Z,32.61
2018-08-10T13:56:09.297Z,33.21
2018-08-10T13:58:39.223Z,33.24
2018-08-10T14:01:09.061Z,32.42
2018-08-10T14:03:38.806Z,32.42
2018-08-10T14:06:08.632Z,31.57
2018-08-10T14:08:38.627Z,31.61
2018-08-10T14:11:08.441Z,31.49
2018-08-10T14:13:38.332Z,31.63
2018-08-10T14:16:08.181Z,32.03
2018-08-10T14:18:38.086Z,31.16
2018-08-10T14:21:07.990Z,31.16
2018-08-10T14:23:37.864Z,31.33
2018-08-10T14:26:07.781Z,31.45
2018-08-10T14:28:37.433Z,30.97
2018-08-10T14:31:07.408Z,30.79
2018-08-10T14:33:37.351Z,30.69
2018-08-10T14:36:07.199Z,30.51
2018-08-10T14:38:36.895Z,30.94
2018-08-10T14:41:06.697Z,32.15
2018-08-10T14:43:36.415Z,32.09
2018-08-10T14:46:06.702Z,31.80
2018-08-10T14:48:36.591Z,32.00
2018-08-10T14:51:06.394Z,31.63
2018-08-10T14:53:36.119Z,31.80
2018-08-10T14:56:05.864Z,31.77
2018-08-10T14:59:37.938Z,31.84
2018-08-10T15:02:08.017Z,31.11
2018-08-10T15:04:37.956Z,31.46
2018-08-10T15:07:08.020Z,31.49
2018-08-10T15:09:37.712Z,30.94
2018-08-10T15:12:07.807Z,31.14
2018-08-10T15:14:38.027Z,30.90
2018-08-10T15:17:07.897Z,31.12
2018-08-10T15:19:38.589Z,31.67
2018-08-10T15:22:09.241Z,31.17
2018-08-10T15:24:39.219Z,31.02
2018-08-10T15:27:08.963Z,30.94
2018-08-10T15:29:38.696Z,31.07
2018-08-10T15:32:08.537Z,30.61
2018-08-10T15:34:38.361Z,30.59
2018-08-10T15:37:08.220Z,30.21
2018-08-10T15:39:38.126Z,30.03
2018-08-10T15:42:07.999Z,30.03
2018-08-10T15:44:37.779Z,29.92
2018-08-10T15:47:08.822Z,29.82
2018-08-10T15:49:38.658Z,29.71
2018-08-10T15:52:08.649Z,29.64
2018-08-10T15:54:39.274Z,29.77
2018-08-10T15:57:09.217Z,29.59
2018-08-10T15:59:41.905Z,29.73
2018-08-10T16:02:11.933Z,29.39
2018-08-10T16:04:42.916Z,29.46
2018-08-10T16:07:12.658Z,29.19
2018-08-10T16:09:42.374Z,29.12
2018-08-10T16:12:12.137Z,29.11
2018-08-10T16:14:41.899Z,29.07
2018-08-10T16:17:11.736Z,29.16
2018-08-10T16:19:42.139Z,28.74
2018-08-10T16:22:12.003Z,28.56
2018-08-10T16:24:41.895Z,28.54
2018-08-10T16:27:12.262Z,28.59
2018-08-10T16:29:41.940Z,28.58
2018-08-10T16:32:11.800Z,28.40
2018-08-10T16:34:41.582Z,28.39
2018-08-10T16:37:11.579Z,28.09
2018-08-10T16:39:41.428Z,28.38
2018-08-10T16:42:11.148Z,28.26
2018-08-10T16:44:41.073Z,28.22
2018-08-10T16:47:11.292Z,28.11
2018-08-10T16:49:41.172Z,28.24
2018-08-10T16:52:10.945Z,28.18
2018-08-10T16:54:40.652Z,27.88
2018-08-10T16:57:10.475Z,27.75
2018-08-10T16:59:40.336Z,27.73
2018-08-10T17:02:11.529Z,28.02
2018-08-10T17:04:42.357Z,27.82
2018-08-10T17:07:12.271Z,27.34
2018-08-10T17:09:42.086Z,27.27
2018-08-10T17:12:11.893Z,27.28
2018-08-10T17:14:41.601Z,27.49
2018-08-10T17:17:11.485Z,27.64
2018-08-10T17:19:41.349Z,27.52
2018-08-10T17:22:11.014Z,27.84
2018-08-10T17:24:40.644Z,28.07
2018-08-10T17:27:10.754Z,27.68
2018-08-10T17:29:40.456Z,27.60
2018-08-10T17:32:10.254Z,27.70
2018-08-10T17:34:40.010Z,27.45
2018-08-10T17:37:09.881Z,27.07
2018-08-10T17:39:39.881Z,27.26
2018-08-10T17:42:09.671Z,27.41
2018-08-10T17:44:39.357Z,27.33
2018-08-10T17:47:09.276Z,27.12
2018-08-10T17:49:39.440Z,26.54
2018-08-10T17:52:09.318Z,26.31
2018-08-10T17:54:38.971Z,26.40
2018-08-10T17:57:08.855Z,26.63
2018-08-10T17:59:38.741Z,26.85
2018-08-10T18:02:08.684Z,26.96
2018-08-10T18:04:38.451Z,26.99
2018-08-10T18:07:08.613Z,26.70
2018-08-10T18:10:27.932Z,26.89
2018-08-10T18:12:57.694Z,26.68
2018-08-10T18:15:27.483Z,26.71
2018-08-10T18:17:57.134Z,26.56
2018-08-10T18:20:26.927Z,26.35
2018-08-10T18:22:56.645Z,26.06
2018-08-10T18:25:26.433Z,25.40
2018-08-10T18:27:55.984Z,25.20
2018-08-10T18:30:26.492Z,25.12
2018-08-10T18:32:56.332Z,25.00
2018-08-10T18:35:26.154Z,24.77
2018-08-10T18:37:55.986Z,24.74
2018-08-10T18:40:25.915Z,24.68
2018-08-10T18:42:55.737Z,24.51
2018-08-10T18:45:25.622Z,24.66
2018-08-10T18:47:55.421Z,24.39
2018-08-10T18:50:25.578Z,24.42
2018-08-10T18:52:55.234Z,24.36
2018-08-10T18:55:25.318Z,24.41
2018-08-10T18:57:55.101Z,24.06
2018-08-10T19:00:26.633Z,24.21
2018-08-10T19:02:57.061Z,23.91
2018-08-10T19:05:26.883Z,24.62
2018-08-10T19:07:57.656Z,24.34
2018-08-10T19:10:29.006Z,24.55
2018-08-10T19:12:58.776Z,25.06
2018-08-10T19:15:28.477Z,25.28
2018-08-10T19:17:59.555Z,25.49
2018-08-10T19:20:29.457Z,25.35
2018-08-10T19:22:59.236Z,25.53
2018-08-10T19:25:29.615Z,25.55
2018-08-10T19:27:59.888Z,25.57
2018-08-10T19:30:29.713Z,25.52
2018-08-10T19:33:00.442Z,24.53
2018-08-10T19:35:30.676Z,24.47
2018-08-10T19:38:00.869Z,24.50
2018-08-10T19:40:30.653Z,24.47
2018-08-10T19:43:00.355Z,24.26
2018-08-10T19:45:30.255Z,24.58
2018-08-10T19:47:59.958Z,24.80
2018-08-10T19:50:30.188Z,24.57
2018-08-10T19:52:59.914Z,24.39
2018-08-10T19:55:29.589Z,24.00
2018-08-10T19:57:59.436Z,23.71
2018-08-10T20:00:29.276Z,23.43
2018-08-10T20:02:59.023Z,23.88
2018-08-10T20:05:28.956Z,24.32
2018-08-10T20:07:58.757Z,24.01
2018-08-10T20:10:28.851Z,23.82
2018-08-10T20:12:58.685Z,24.30
2018-08-10T20:15:28.606Z,24.43
2018-08-10T20:17:58.153Z,24.25
2018-08-10T20:20:27.842Z,24.03
2018-08-10T20:22:57.648Z,24.21
2018-08-10T20:25:27.351Z,24.26
2018-08-10T20:27:57.002Z,24.32
2018-08-10T20:30:26.698Z,24.24
2018-08-10T20:32:56.406Z,24.41
2018-08-10T20:35:26.275Z,24.40
2018-08-10T20:37:55.944Z,24.22
2018-08-10T20:40:25.756Z,24.08
2018-08-10T20:42:55.612Z,23.61
2018-08-10T20:45:25.404Z,23.79
2018-08-10T20:47:55.223Z,24.09
2018-08-10T20:50:25.748Z,24.18
2018-08-10T20:52:55.890Z,23.93
2018-08-10T20:55:25.753Z,24.05
2018-08-10T20:57:55.974Z,24.03
2018-08-10T21:00:25.657Z,23.90
2018-08-10T21:02:55.269Z,24.03
2018-08-10T21:05:24.770Z,24.00
2018-08-10T21:07:54.634Z,24.00
2018-08-10T21:10:24.417Z,23.72
2018-08-10T21:12:54.871Z,23.83
2018-08-10T21:15:25.466Z,24.01
2018-08-10T21:17:57.168Z,23.90
2018-08-10T21:20:28.065Z,23.73
2018-08-10T21:22:58.637Z,23.79
2018-08-10T21:25:29.235Z,23.82
2018-08-10T21:28:01.184Z,23.83
2018-08-10T21:30:31.813Z,23.70
2018-08-10T21:33:02.478Z,23.79
2018-08-10T21:35:33.338Z,23.87
2018-08-10T21:38:04.340Z,23.72
2018-08-10T21:40:34.250Z,23.61
2018-08-10T21:43:04.032Z,23.65
2018-08-10T21:45:33.788Z,23.68
2018-08-10T21:48:04.130Z,23.00
2018-08-10T21:50:34.000Z,23.14
2018-08-10T21:53:04.047Z,23.41
2018-08-10T21:55:33.762Z,23.12
2018-08-10T21:58:03.628Z,22.67
2018-08-10T22:00:55.747Z,22.53
2018-08-10T22:03:25.575Z,22.57
2018-08-10T22:05:56.128Z,22.88
2018-08-10T22:08:27.619Z,22.86
2018-08-10T22:10:58.032Z,22.73
2018-08-10T22:13:33.013Z,22.72
2018-08-10T22:16:08.409Z,22.30
2018-08-10T22:18:44.249Z,22.46
2018-08-10T22:21:14.937Z,22.74
2018-08-10T22:23:45.273Z,22.66
2018-08-10T22:26:15.976Z,22.90
2018-08-10T22:28:47.600Z,23.16
2018-08-10T22:31:18.357Z,23.23
2018-08-10T22:33:49.032Z,23.18
2018-08-10T22:36:19.078Z,23.19
2018-08-10T22:38:51.117Z,23.31
2018-08-10T22:41:21.764Z,23.27
2018-08-10T22:43:52.409Z,22.82
2018-08-10T22:46:23.120Z,22.25
2018-08-10T22:48:52.978Z,22.08
2018-08-10T22:51:22.905Z,22.19
2018-08-10T22:53:53.080Z,21.64
2018-08-10T22:56:22.934Z,21.85
2018-08-10T22:58:52.752Z,22.31
2018-08-10T23:01:22.423Z,20.72
2018-08-10T23:03:52.176Z,22.36
2018-08-10T23:06:21.989Z,22.42
2018-08-10T23:08:51.928Z,22.49
2018-08-10T23:11:21.818Z,22.32
2018-08-10T23:13:51.528Z,22.19
2018-08-10T23:16:22.028Z,22.15
2018-08-10T23:18:52.971Z,22.25
2018-08-10T23:21:22.853Z,22.02
2018-08-10T23:23:52.664Z,21.25
2018-08-10T23:26:22.384Z,21.13
2018-08-10T23:28:52.556Z,21.19
2018-08-10T23:31:22.389Z,21.03
2018-08-10T23:33:52.145Z,21.15
2018-08-10T23:36:21.979Z,21.08
2018-08-10T23:38:51.743Z,20.63
2018-08-10T23:41:21.472Z,20.78
2018-08-10T23:43:51.097Z,20.58
2018-08-10T23:46:20.877Z,20.70
2018-08-10T23:48:50.737Z,20.67
2018-08-10T23:51:20.586Z,20.88
2018-08-10T23:53:50.317Z,20.79
2018-08-10T23:56:20.722Z,21.16
2018-08-10T23:58:50.635Z,21.21
